sensor_id;sensor_type;location;lat;lon;timestamp;temperature;humidity
16970;DHT22;8601;48.718;8.992;2023-04-03T00:02:09;3.50;99.90
16970;DHT22;8601;48.718;8.992;2023-04-03T00:04:36;3.50;99.90
16970;DHT22;8601;48.718;8.992;2023-04-03T00:07:04;3.60;99.90
16970;DHT22;8601;48.718;8.992;2023-04-03T00:09:31;3.50;99.90
16970;DHT22;8601;48.718;8.992;2023-04-03T00:11:58;3.50;99.90
16970;DHT22;8601;48.718;8.992;2023-04-03T00:14:26;3.50;99.90
16970;DHT22;8601;48.718;8.992;2023-04-03T00:16:53;3.50;99.90
16970;DHT22;8601;48.718;8.992;2023-04-03T00:19:20;3.60;99.90
16970;DHT22;8601;48.718;8.992;2023-04-03T00:21:47;3.60;99.90
16970;DHT22;8601;48.718;8.992;2023-04-03T00:24:16;3.50;99.90
16970;DHT22;8601;48.718;8.992;2023-04-03T00:26:43;3.60;99.90
16970;DHT22;8601;48.718;8.992;2023-04-03T00:29:11;3.50;99.90
16970;DHT22;8601;48.718;8.992;2023-04-03T00:31:38;3.40;99.90
16970;DHT22;8601;48.718;8.992;2023-04-03T00:34:05;3.50;99.90
16970;DHT22;8601;48.718;8.992;2023-04-03T00:36:34;3.50;99.90
16970;DHT22;8601;48.718;8.992;2023-04-03T00:39:01;3.50;99.90
16970;DHT22;8601;48.718;8.992;2023-04-03T00:41:29;3.40;99.90
16970;DHT22;8601;48.718;8.992;2023-04-03T00:43:57;3.40;99.90
16970;DHT22;8601;48.718;8.992;2023-04-03T00:46:24;3.40;99.90
16970;DHT22;8601;48.718;8.992;2023-04-03T00:48:52;3.30;99.90
16970;DHT22;8601;48.718;8.992;2023-04-03T00:51:22;3.30;99.90
16970;DHT22;8601;48.718;8.992;2023-04-03T00:53:53;3.40;99.90
16970;DHT22;8601;48.718;8.992;2023-04-03T00:56:23;3.40;99.90
16970;DHT22;8601;48.718;8.992;2023-04-03T00:58:55;3.40;99.90
16970;DHT22;8601;48.718;8.992;2023-04-03T01:01:26;3.40;99.90
16970;DHT22;8601;48.718;8.992;2023-04-03T01:03:53;3.30;99.90
16970;DHT22;8601;48.718;8.992;2023-04-03T01:06:24;3.30;99.90
16970;DHT22;8601;48.718;8.992;2023-04-03T01:08:53;3.20;99.90
16970;DHT22;8601;48.718;8.992;2023-04-03T01:11:21;3.20;99.90
16970;DHT22;8601;48.718;8.992;2023-04-03T01:13:49;3.30;99.90
16970;DHT22;8601;48.718;8.992;2023-04-03T01:16:17;3.40;99.90
16970;DHT22;8601;48.718;8.992;2023-04-03T01:18:45;3.40;99.90
16970;DHT22;8601;48.718;8.992;2023-04-03T01:21:42;3.30;99.90
16970;DHT22;8601;48.718;8.992;2023-04-03T01:24:22;3.30;99.90
16970;DHT22;8601;48.718;8.992;2023-04-03T01:26:51;3.30;99.90
16970;DHT22;8601;48.718;8.992;2023-04-03T01:29:18;3.30;99.90
16970;DHT22;8601;48.718;8.992;2023-04-03T01:31:53;3.30;99.90
16970;DHT22;8601;48.718;8.992;2023-04-03T01:34:21;3.30;99.90
16970;DHT22;8601;48.718;8.992;2023-04-03T01:36:47;3.30;99.90
16970;DHT22;8601;48.718;8.992;2023-04-03T01:39:15;3.30;99.90
16970;DHT22;8601;48.718;8.992;2023-04-03T01:41:42;3.30;99.90
16970;DHT22;8601;48.718;8.992;2023-04-03T01:44:09;3.30;99.90
16970;DHT22;8601;48.718;8.992;2023-04-03T01:46:36;3.40;99.90
16970;DHT22;8601;48.718;8.992;2023-04-03T01:49:04;3.40;99.90
16970;DHT22;8601;48.718;8.992;2023-04-03T01:51:31;3.40;99.90
16970;DHT22;8601;48.718;8.992;2023-04-03T01:53:59;3.40;99.90
16970;DHT22;8601;48.718;8.992;2023-04-03T01:56:26;3.20;99.90
16970;DHT22;8601;48.718;8.992;2023-04-03T01:58:53;3.20;99.90
16970;DHT22;8601;48.718;8.992;2023-04-03T02:01:20;3.20;99.90
16970;DHT22;8601;48.718;8.992;2023-04-03T02:03:46;3.20;99.90
16970;DHT22;8601;48.718;8.992;2023-04-03T02:06:15;3.20;99.90
16970;DHT22;8601;48.718;8.992;2023-04-03T02:08:42;3.30;99.90
16970;DHT22;8601;48.718;8.992;2023-04-03T02:11:10;3.30;99.90
16970;DHT22;8601;48.718;8.992;2023-04-03T02:13:37;3.30;99.90
16970;DHT22;8601;48.718;8.992;2023-04-03T02:16:08;3.30;99.90
16970;DHT22;8601;48.718;8.992;2023-04-03T02:18:35;3.30;99.90
16970;DHT22;8601;48.718;8.992;2023-04-03T02:21:02;3.20;99.90
16970;DHT22;8601;48.718;8.992;2023-04-03T02:23:30;3.30;99.90
16970;DHT22;8601;48.718;8.992;2023-04-03T02:26:05;3.30;99.90
16970;DHT22;8601;48.718;8.992;2023-04-03T02:28:32;3.30;99.90
16970;DHT22;8601;48.718;8.992;2023-04-03T02:31:00;3.30;99.90
16970;DHT22;8601;48.718;8.992;2023-04-03T02:33:27;3.20;99.90
16970;DHT22;8601;48.718;8.992;2023-04-03T02:35:54;3.20;99.90
16970;DHT22;8601;48.718;8.992;2023-04-03T02:38:21;3.20;99.90
16970;DHT22;8601;48.718;8.992;2023-04-03T02:40:50;3.10;99.90
16970;DHT22;8601;48.718;8.992;2023-04-03T02:43:18;3.20;99.90
16970;DHT22;8601;48.718;8.992;2023-04-03T02:45:45;3.20;99.90
16970;DHT22;8601;48.718;8.992;2023-04-03T02:48:11;3.30;99.90
16970;DHT22;8601;48.718;8.992;2023-04-03T02:50:40;3.20;99.90
16970;DHT22;8601;48.718;8.992;2023-04-03T02:53:07;3.20;99.90
16970;DHT22;8601;48.718;8.992;2023-04-03T02:55:34;3.20;99.90
16970;DHT22;8601;48.718;8.992;2023-04-03T02:58:02;3.20;99.90
16970;DHT22;8601;48.718;8.992;2023-04-03T03:00:29;3.10;99.90
16970;DHT22;8601;48.718;8.992;2023-04-03T03:02:56;3.10;99.90
16970;DHT22;8601;48.718;8.992;2023-04-03T03:05:23;3.20;99.90
16970;DHT22;8601;48.718;8.992;2023-04-03T03:07:50;3.20;99.90
16970;DHT22;8601;48.718;8.992;2023-04-03T03:10:18;3.20;99.90
16970;DHT22;8601;48.718;8.992;2023-04-03T03:12:45;3.10;99.90
16970;DHT22;8601;48.718;8.992;2023-04-03T03:15:13;3.10;99.90
16970;DHT22;8601;48.718;8.992;2023-04-03T03:17:40;3.10;99.90
16970;DHT22;8601;48.718;8.992;2023-04-03T03:20:08;3.10;99.90
16970;DHT22;8601;48.718;8.992;2023-04-03T03:22:35;3.10;99.90
16970;DHT22;8601;48.718;8.992;2023-04-03T03:25:03;3.00;99.90
16970;DHT22;8601;48.718;8.992;2023-04-03T03:27:30;3.00;99.90
16970;DHT22;8601;48.718;8.992;2023-04-03T03:29:57;3.00;99.90
16970;DHT22;8601;48.718;8.992;2023-04-03T03:32:25;3.00;99.90
16970;DHT22;8601;48.718;8.992;2023-04-03T03:34:52;3.00;99.90
16970;DHT22;8601;48.718;8.992;2023-04-03T03:37:19;3.00;99.90
16970;DHT22;8601;48.718;8.992;2023-04-03T03:39:46;3.10;99.90
16970;DHT22;8601;48.718;8.992;2023-04-03T03:42:13;3.00;99.90
16970;DHT22;8601;48.718;8.992;2023-04-03T03:44:40;3.10;99.90
16970;DHT22;8601;48.718;8.992;2023-04-03T03:47:08;3.00;99.90
16970;DHT22;8601;48.718;8.992;2023-04-03T03:49:37;3.10;99.90
16970;DHT22;8601;48.718;8.992;2023-04-03T03:52:04;3.00;99.90
16970;DHT22;8601;48.718;8.992;2023-04-03T03:54:31;3.00;99.90
16970;DHT22;8601;48.718;8.992;2023-04-03T03:56:58;3.00;99.90
16970;DHT22;8601;48.718;8.992;2023-04-03T03:59:26;2.90;99.90
16970;DHT22;8601;48.718;8.992;2023-04-03T04:01:53;3.00;99.90
16970;DHT22;8601;48.718;8.992;2023-04-03T04:04:20;3.00;99.90
16970;DHT22;8601;48.718;8.992;2023-04-03T04:06:48;3.00;99.90
16970;DHT22;8601;48.718;8.992;2023-04-03T04:09:16;3.00;99.90
16970;DHT22;8601;48.718;8.992;2023-04-03T04:11:42;3.10;99.90
16970;DHT22;8601;48.718;8.992;2023-04-03T04:14:10;3.10;99.90
16970;DHT22;8601;48.718;8.992;2023-04-03T04:16:38;3.10;99.90
16970;DHT22;8601;48.718;8.992;2023-04-03T04:19:04;3.10;99.90
16970;DHT22;8601;48.718;8.992;2023-04-03T04:21:31;3.10;99.90
16970;DHT22;8601;48.718;8.992;2023-04-03T04:24:00;3.10;99.90
16970;DHT22;8601;48.718;8.992;2023-04-03T04:26:27;3.10;99.90
16970;DHT22;8601;48.718;8.992;2023-04-03T04:28:54;3.20;99.90
16970;DHT22;8601;48.718;8.992;2023-04-03T04:31:21;3.20;99.90
16970;DHT22;8601;48.718;8.992;2023-04-03T04:33:48;3.20;99.90
16970;DHT22;8601;48.718;8.992;2023-04-03T04:36:16;3.20;99.90
16970;DHT22;8601;48.718;8.992;2023-04-03T04:38:43;3.20;99.90
16970;DHT22;8601;48.718;8.992;2023-04-03T04:41:12;3.10;99.90
16970;DHT22;8601;48.718;8.992;2023-04-03T04:43:38;3.20;99.90
16970;DHT22;8601;48.718;8.992;2023-04-03T04:46:07;3.20;99.90
16970;DHT22;8601;48.718;8.992;2023-04-03T04:48:35;3.10;99.90
16970;DHT22;8601;48.718;8.992;2023-04-03T04:51:03;3.10;99.90
16970;DHT22;8601;48.718;8.992;2023-04-03T04:53:30;3.10;99.90
16970;DHT22;8601;48.718;8.992;2023-04-03T04:55:57;3.10;99.90
16970;DHT22;8601;48.718;8.992;2023-04-03T04:58:25;3.10;99.90
16970;DHT22;8601;48.718;8.992;2023-04-03T05:00:58;3.10;99.90
16970;DHT22;8601;48.718;8.992;2023-04-03T05:03:25;3.00;99.90
16970;DHT22;8601;48.718;8.992;2023-04-03T05:05:52;3.10;99.90
16970;DHT22;8601;48.718;8.992;2023-04-03T05:08:19;3.20;99.90
16970;DHT22;8601;48.718;8.992;2023-04-03T05:10:47;3.20;99.90
16970;DHT22;8601;48.718;8.992;2023-04-03T05:13:14;3.20;99.90
16970;DHT22;8601;48.718;8.992;2023-04-03T05:15:43;3.20;99.90
16970;DHT22;8601;48.718;8.992;2023-04-03T05:18:10;3.20;99.90
16970;DHT22;8601;48.718;8.992;2023-04-03T05:20:37;3.10;99.90
16970;DHT22;8601;48.718;8.992;2023-04-03T05:23:04;3.10;99.90
16970;DHT22;8601;48.718;8.992;2023-04-03T05:25:31;3.10;99.90
16970;DHT22;8601;48.718;8.992;2023-04-03T05:27:59;3.20;99.90
16970;DHT22;8601;48.718;8.992;2023-04-03T05:30:26;3.30;99.90
16970;DHT22;8601;48.718;8.992;2023-04-03T05:32:54;3.30;99.90
16970;DHT22;8601;48.718;8.992;2023-04-03T05:35:22;3.20;99.90
16970;DHT22;8601;48.718;8.992;2023-04-03T05:37:49;3.20;99.90
16970;DHT22;8601;48.718;8.992;2023-04-03T05:40:16;3.10;99.90
16970;DHT22;8601;48.718;8.992;2023-04-03T05:42:44;3.10;99.90
16970;DHT22;8601;48.718;8.992;2023-04-03T05:45:11;3.10;99.90
16970;DHT22;8601;48.718;8.992;2023-04-03T05:47:38;3.00;99.90
16970;DHT22;8601;48.718;8.992;2023-04-03T05:50:07;3.10;99.90
16970;DHT22;8601;48.718;8.992;2023-04-03T05:52:36;3.20;99.90
16970;DHT22;8601;48.718;8.992;2023-04-03T05:55:05;3.30;99.90
16970;DHT22;8601;48.718;8.992;2023-04-03T05:57:33;3.30;99.90
16970;DHT22;8601;48.718;8.992;2023-04-03T05:59:59;3.40;99.90
16970;DHT22;8601;48.718;8.992;2023-04-03T06:02:26;3.40;99.90
16970;DHT22;8601;48.718;8.992;2023-04-03T06:04:53;3.40;99.90
16970;DHT22;8601;48.718;8.992;2023-04-03T06:07:24;3.40;99.90
16970;DHT22;8601;48.718;8.992;2023-04-03T06:09:55;3.40;99.90
16970;DHT22;8601;48.718;8.992;2023-04-03T06:12:22;3.30;99.90
16970;DHT22;8601;48.718;8.992;2023-04-03T06:14:49;3.30;99.60
16970;DHT22;8601;48.718;8.992;2023-04-03T06:17:17;3.20;99.50
16970;DHT22;8601;48.718;8.992;2023-04-03T06:19:44;3.20;99.90
16970;DHT22;8601;48.718;8.992;2023-04-03T06:22:12;3.10;99.90
16970;DHT22;8601;48.718;8.992;2023-04-03T06:24:40;3.10;99.90
16970;DHT22;8601;48.718;8.992;2023-04-03T06:27:10;3.10;99.90
16970;DHT22;8601;48.718;8.992;2023-04-03T06:29:37;3.00;99.80
16970;DHT22;8601;48.718;8.992;2023-04-03T06:32:05;3.10;99.90
16970;DHT22;8601;48.718;8.992;2023-04-03T06:34:32;3.10;99.90
16970;DHT22;8601;48.718;8.992;2023-04-03T06:36:59;3.10;99.90
16970;DHT22;8601;48.718;8.992;2023-04-03T06:39:26;3.20;99.90
16970;DHT22;8601;48.718;8.992;2023-04-03T06:41:54;3.30;99.90
16970;DHT22;8601;48.718;8.992;2023-04-03T06:44:21;3.30;99.90
16970;DHT22;8601;48.718;8.992;2023-04-03T06:46:48;3.30;99.90
16970;DHT22;8601;48.718;8.992;2023-04-03T06:49:15;3.50;99.90
16970;DHT22;8601;48.718;8.992;2023-04-03T06:51:42;3.50;99.60
16970;DHT22;8601;48.718;8.992;2023-04-03T06:54:09;3.50;99.30
16970;DHT22;8601;48.718;8.992;2023-04-03T06:56:36;3.60;99.70
16970;DHT22;8601;48.718;8.992;2023-04-03T06:59:05;3.70;99.20
16970;DHT22;8601;48.718;8.992;2023-04-03T07:01:32;3.70;99.50
16970;DHT22;8601;48.718;8.992;2023-04-03T07:03:59;3.80;99.90
16970;DHT22;8601;48.718;8.992;2023-04-03T07:06:27;3.80;99.20
16970;DHT22;8601;48.718;8.992;2023-04-03T07:08:54;3.80;98.70
16970;DHT22;8601;48.718;8.992;2023-04-03T07:11:21;3.70;99.20
16970;DHT22;8601;48.718;8.992;2023-04-03T07:13:49;3.80;98.80
16970;DHT22;8601;48.718;8.992;2023-04-03T07:16:17;6.20;99.90
16970;DHT22;8601;48.718;8.992;2023-04-03T07:18:44;8.00;99.90
16970;DHT22;8601;48.718;8.992;2023-04-03T07:21:11;6.80;94.20
16970;DHT22;8601;48.718;8.992;2023-04-03T07:23:38;6.00;93.50
16970;DHT22;8601;48.718;8.992;2023-04-03T07:26:05;5.20;93.40
16970;DHT22;8601;48.718;8.992;2023-04-03T07:28:34;4.80;95.90
16970;DHT22;8601;48.718;8.992;2023-04-03T07:31:04;4.70;97.00
16970;DHT22;8601;48.718;8.992;2023-04-03T07:33:34;4.50;97.20
16970;DHT22;8601;48.718;8.992;2023-04-03T07:36:01;4.50;98.10
16970;DHT22;8601;48.718;8.992;2023-04-03T07:38:29;4.40;97.40
16970;DHT22;8601;48.718;8.992;2023-04-03T07:40:56;4.40;97.50
16970;DHT22;8601;48.718;8.992;2023-04-03T07:43:23;4.40;97.30
16970;DHT22;8601;48.718;8.992;2023-04-03T07:45:51;4.30;97.50
16970;DHT22;8601;48.718;8.992;2023-04-03T07:48:20;4.40;98.10
16970;DHT22;8601;48.718;8.992;2023-04-03T07:50:49;4.50;98.00
16970;DHT22;8601;48.718;8.992;2023-04-03T07:53:17;4.50;97.80
16970;DHT22;8601;48.718;8.992;2023-04-03T07:55:46;4.50;97.60
16970;DHT22;8601;48.718;8.992;2023-04-03T07:58:16;4.60;97.50
16970;DHT22;8601;48.718;8.992;2023-04-03T08:00:43;4.40;97.50
16970;DHT22;8601;48.718;8.992;2023-04-03T08:03:11;4.50;97.60
16970;DHT22;8601;48.718;8.992;2023-04-03T08:05:39;4.50;97.70
16970;DHT22;8601;48.718;8.992;2023-04-03T08:08:09;4.70;97.10
16970;DHT22;8601;48.718;8.992;2023-04-03T08:10:36;4.90;97.30
16970;DHT22;8601;48.718;8.992;2023-04-03T08:13:03;4.90;96.60
16970;DHT22;8601;48.718;8.992;2023-04-03T08:15:31;4.90;96.90
16970;DHT22;8601;48.718;8.992;2023-04-03T08:17:58;4.90;96.40
16970;DHT22;8601;48.718;8.992;2023-04-03T08:20:25;4.90;95.90
16970;DHT22;8601;48.718;8.992;2023-04-03T08:22:52;5.00;95.90
16970;DHT22;8601;48.718;8.992;2023-04-03T08:25:21;5.10;96.10
16970;DHT22;8601;48.718;8.992;2023-04-03T08:27:48;5.10;95.40
16970;DHT22;8601;48.718;8.992;2023-04-03T08:30:15;5.30;95.60
16970;DHT22;8601;48.718;8.992;2023-04-03T08:32:44;5.30;95.40
16970;DHT22;8601;48.718;8.992;2023-04-03T08:35:11;5.30;94.00
16970;DHT22;8601;48.718;8.992;2023-04-03T08:37:38;5.40;95.10
16970;DHT22;8601;48.718;8.992;2023-04-03T08:40:07;5.30;94.70
16970;DHT22;8601;48.718;8.992;2023-04-03T08:42:44;5.30;95.00
16970;DHT22;8601;48.718;8.992;2023-04-03T08:45:18;5.50;94.80
16970;DHT22;8601;48.718;8.992;2023-04-03T08:47:50;5.50;95.00
16970;DHT22;8601;48.718;8.992;2023-04-03T08:50:20;5.40;95.00
16970;DHT22;8601;48.718;8.992;2023-04-03T08:52:51;5.60;95.50
16970;DHT22;8601;48.718;8.992;2023-04-03T08:55:24;5.70;94.10
16970;DHT22;8601;48.718;8.992;2023-04-03T08:58:00;5.70;93.90
16970;DHT22;8601;48.718;8.992;2023-04-03T09:00:31;5.70;94.50
16970;DHT22;8601;48.718;8.992;2023-04-03T09:02:59;5.60;94.20
16970;DHT22;8601;48.718;8.992;2023-04-03T09:05:34;5.70;93.30
16970;DHT22;8601;48.718;8.992;2023-04-03T09:08:07;5.80;93.50
16970;DHT22;8601;48.718;8.992;2023-04-03T09:10:39;5.60;92.90
16970;DHT22;8601;48.718;8.992;2023-04-03T09:13:13;6.40;94.70
16970;DHT22;8601;48.718;8.992;2023-04-03T09:15:45;6.20;93.30
16970;DHT22;8601;48.718;8.992;2023-04-03T09:18:17;6.20;94.40
16970;DHT22;8601;48.718;8.992;2023-04-03T09:20:52;6.20;92.80
16970;DHT22;8601;48.718;8.992;2023-04-03T09:23:26;6.10;91.60
16970;DHT22;8601;48.718;8.992;2023-04-03T09:26:00;6.00;91.60
16970;DHT22;8601;48.718;8.992;2023-04-03T09:28:32;6.20;92.40
16970;DHT22;8601;48.718;8.992;2023-04-03T09:31:00;6.00;91.70
16970;DHT22;8601;48.718;8.992;2023-04-03T09:33:27;6.10;92.10
16970;DHT22;8601;48.718;8.992;2023-04-03T09:35:55;6.20;92.40
16970;DHT22;8601;48.718;8.992;2023-04-03T09:38:22;6.10;91.60
16970;DHT22;8601;48.718;8.992;2023-04-03T09:41:03;6.10;91.30
16970;DHT22;8601;48.718;8.992;2023-04-03T09:43:33;6.10;90.60
16970;DHT22;8601;48.718;8.992;2023-04-03T09:46:20;6.00;89.60
16970;DHT22;8601;48.718;8.992;2023-04-03T09:48:51;5.90;91.60
16970;DHT22;8601;48.718;8.992;2023-04-03T09:51:18;5.80;90.40
16970;DHT22;8601;48.718;8.992;2023-04-03T09:53:46;5.80;92.10
16970;DHT22;8601;48.718;8.992;2023-04-03T09:56:22;5.80;92.10
16970;DHT22;8601;48.718;8.992;2023-04-03T09:58:52;5.90;92.40
16970;DHT22;8601;48.718;8.992;2023-04-03T10:01:34;5.80;91.00
16970;DHT22;8601;48.718;8.992;2023-04-03T10:04:08;5.90;91.70
16970;DHT22;8601;48.718;8.992;2023-04-03T10:06:37;6.20;92.60
16970;DHT22;8601;48.718;8.992;2023-04-03T10:09:16;6.30;91.30
16970;DHT22;8601;48.718;8.992;2023-04-03T10:11:57;6.50;91.50
16970;DHT22;8601;48.718;8.992;2023-04-03T10:14:26;6.80;90.20
16970;DHT22;8601;48.718;8.992;2023-04-03T10:16:59;7.00;89.80
16970;DHT22;8601;48.718;8.992;2023-04-03T10:19:36;6.90;90.00
16970;DHT22;8601;48.718;8.992;2023-04-03T10:22:16;6.80;88.30
16970;DHT22;8601;48.718;8.992;2023-04-03T10:24:51;6.70;90.80
16970;DHT22;8601;48.718;8.992;2023-04-03T10:27:26;6.50;89.20
16970;DHT22;8601;48.718;8.992;2023-04-03T10:30:04;6.30;89.40
16970;DHT22;8601;48.718;8.992;2023-04-03T10:32:50;6.30;89.80
16970;DHT22;8601;48.718;8.992;2023-04-03T10:35:30;6.20;90.10
16970;DHT22;8601;48.718;8.992;2023-04-03T10:38:05;6.30;90.20
16970;DHT22;8601;48.718;8.992;2023-04-03T10:40:42;6.10;89.70
16970;DHT22;8601;48.718;8.992;2023-04-03T10:43:20;5.90;89.70
16970;DHT22;8601;48.718;8.992;2023-04-03T10:45:57;5.90;90.00
16970;DHT22;8601;48.718;8.992;2023-04-03T10:48:36;5.80;89.00
16970;DHT22;8601;48.718;8.992;2023-04-03T10:51:13;5.80;90.00
16970;DHT22;8601;48.718;8.992;2023-04-03T10:53:47;5.80;89.30
16970;DHT22;8601;48.718;8.992;2023-04-03T10:56:20;5.80;90.20
16970;DHT22;8601;48.718;8.992;2023-04-03T10:58:52;5.80;90.20
16970;DHT22;8601;48.718;8.992;2023-04-03T11:01:26;5.90;89.40
16970;DHT22;8601;48.718;8.992;2023-04-03T11:03:57;6.00;87.10
16970;DHT22;8601;48.718;8.992;2023-04-03T11:06:28;7.30;94.90
16970;DHT22;8601;48.718;8.992;2023-04-03T11:09:02;6.80;84.20
16970;DHT22;8601;48.718;8.992;2023-04-03T11:11:34;6.50;82.90
16970;DHT22;8601;48.718;8.992;2023-04-03T11:14:05;6.30;85.90
16970;DHT22;8601;48.718;8.992;2023-04-03T11:16:41;6.10;86.70
16970;DHT22;8601;48.718;8.992;2023-04-03T11:19:15;5.90;87.20
16970;DHT22;8601;48.718;8.992;2023-04-03T11:21:52;5.80;87.70
16970;DHT22;8601;48.718;8.992;2023-04-03T11:24:24;5.70;88.00
16970;DHT22;8601;48.718;8.992;2023-04-03T11:26:53;5.80;88.90
16970;DHT22;8601;48.718;8.992;2023-04-03T11:29:23;5.80;87.20
16970;DHT22;8601;48.718;8.992;2023-04-03T11:32:16;5.70;88.00
16970;DHT22;8601;48.718;8.992;2023-04-03T11:34:47;5.70;90.00
16970;DHT22;8601;48.718;8.992;2023-04-03T11:37:27;5.60;85.80
16970;DHT22;8601;48.718;8.992;2023-04-03T11:39:57;5.60;87.80
16970;DHT22;8601;48.718;8.992;2023-04-03T11:42:30;5.60;87.40
16970;DHT22;8601;48.718;8.992;2023-04-03T11:45:27;5.60;86.90
16970;DHT22;8601;48.718;8.992;2023-04-03T11:47:59;8.30;92.40
16970;DHT22;8601;48.718;8.992;2023-04-03T11:50:40;7.20;79.40
16970;DHT22;8601;48.718;8.992;2023-04-03T11:53:29;6.70;82.10
16970;DHT22;8601;48.718;8.992;2023-04-03T11:58:39;6.30;84.40
16970;DHT22;8601;48.718;8.992;2023-04-03T12:01:08;6.10;82.50
16970;DHT22;8601;48.718;8.992;2023-04-03T12:04:10;6.10;85.00
16970;DHT22;8601;48.718;8.992;2023-04-03T12:07:02;5.90;83.00
16970;DHT22;8601;48.718;8.992;2023-04-03T12:12:37;5.80;82.00
16970;DHT22;8601;48.718;8.992;2023-04-03T12:15:25;5.80;83.70
16970;DHT22;8601;48.718;8.992;2023-04-03T12:17:52;5.80;82.70
16970;DHT22;8601;48.718;8.992;2023-04-03T12:20:55;5.80;83.10
16970;DHT22;8601;48.718;8.992;2023-04-03T12:23:28;5.80;82.30
16970;DHT22;8601;48.718;8.992;2023-04-03T12:26:20;6.00;83.30
16970;DHT22;8601;48.718;8.992;2023-04-03T12:28:49;5.90;80.00
16970;DHT22;8601;48.718;8.992;2023-04-03T12:31:19;6.10;84.50
16970;DHT22;8601;48.718;8.992;2023-04-03T12:34:10;6.20;83.80
16970;DHT22;8601;48.718;8.992;2023-04-03T12:36:53;6.30;82.40
16970;DHT22;8601;48.718;8.992;2023-04-03T12:39:48;6.30;80.00
16970;DHT22;8601;48.718;8.992;2023-04-03T12:42:55;6.20;81.30
16970;DHT22;8601;48.718;8.992;2023-04-03T12:45:27;6.10;79.90
16970;DHT22;8601;48.718;8.992;2023-04-03T12:47:55;6.00;81.30
16970;DHT22;8601;48.718;8.992;2023-04-03T12:50:24;6.10;80.70
16970;DHT22;8601;48.718;8.992;2023-04-03T12:52:57;6.20;79.70
16970;DHT22;8601;48.718;8.992;2023-04-03T12:55:26;6.10;77.80
16970;DHT22;8601;48.718;8.992;2023-04-03T12:57:53;6.00;76.70
16970;DHT22;8601;48.718;8.992;2023-04-03T13:00:29;6.00;77.10
16970;DHT22;8601;48.718;8.992;2023-04-03T13:02:58;6.00;78.70
16970;DHT22;8601;48.718;8.992;2023-04-03T13:05:26;6.10;79.60
16970;DHT22;8601;48.718;8.992;2023-04-03T13:07:59;6.20;78.40
16970;DHT22;8601;48.718;8.992;2023-04-03T13:10:27;6.30;79.40
16970;DHT22;8601;48.718;8.992;2023-04-03T13:12:56;6.30;77.90
16970;DHT22;8601;48.718;8.992;2023-04-03T13:15:25;6.20;79.30
16970;DHT22;8601;48.718;8.992;2023-04-03T13:17:53;6.20;78.60
16970;DHT22;8601;48.718;8.992;2023-04-03T13:20:23;6.20;79.00
16970;DHT22;8601;48.718;8.992;2023-04-03T13:22:58;5.90;76.80
16970;DHT22;8601;48.718;8.992;2023-04-03T13:25:28;5.80;76.90
16970;DHT22;8601;48.718;8.992;2023-04-03T13:27:56;5.80;76.80
16970;DHT22;8601;48.718;8.992;2023-04-03T13:30:29;5.80;76.80
16970;DHT22;8601;48.718;8.992;2023-04-03T13:32:57;5.90;76.50
16970;DHT22;8601;48.718;8.992;2023-04-03T13:35:35;6.00;77.70
16970;DHT22;8601;48.718;8.992;2023-04-03T13:38:06;6.00;76.00
16970;DHT22;8601;48.718;8.992;2023-04-03T13:40:33;6.30;77.10
16970;DHT22;8601;48.718;8.992;2023-04-03T13:43:18;6.50;74.90
16970;DHT22;8601;48.718;8.992;2023-04-03T13:46:04;6.90;72.80
16970;DHT22;8601;48.718;8.992;2023-04-03T13:48:37;6.90;71.40
16970;DHT22;8601;48.718;8.992;2023-04-03T13:51:05;7.20;73.20
16970;DHT22;8601;48.718;8.992;2023-04-03T13:53:42;7.10;70.00
16970;DHT22;8601;48.718;8.992;2023-04-03T13:56:18;7.30;72.90
16970;DHT22;8601;48.718;8.992;2023-04-03T13:59:18;7.60;71.90
16970;DHT22;8601;48.718;8.992;2023-04-03T14:01:48;7.60;68.30
16970;DHT22;8601;48.718;8.992;2023-04-03T14:04:19;7.30;71.80
16970;DHT22;8601;48.718;8.992;2023-04-03T14:06:48;7.40;72.00
16970;DHT22;8601;48.718;8.992;2023-04-03T14:09:17;7.30;71.30
16970;DHT22;8601;48.718;8.992;2023-04-03T14:11:46;7.20;72.80
16970;DHT22;8601;48.718;8.992;2023-04-03T14:14:16;6.90;69.60
16970;DHT22;8601;48.718;8.992;2023-04-03T14:16:46;7.00;72.50
16970;DHT22;8601;48.718;8.992;2023-04-03T14:19:21;6.90;71.80
16970;DHT22;8601;48.718;8.992;2023-04-03T14:21:48;7.00;72.60
16970;DHT22;8601;48.718;8.992;2023-04-03T14:24:18;7.10;71.70
16970;DHT22;8601;48.718;8.992;2023-04-03T14:26:47;7.20;68.00
16970;DHT22;8601;48.718;8.992;2023-04-03T14:29:15;7.30;68.60
16970;DHT22;8601;48.718;8.992;2023-04-03T14:31:44;7.20;68.10
16970;DHT22;8601;48.718;8.992;2023-04-03T14:34:13;7.10;69.20
16970;DHT22;8601;48.718;8.992;2023-04-03T14:36:42;7.00;70.70
16970;DHT22;8601;48.718;8.992;2023-04-03T14:39:17;6.90;69.60
16970;DHT22;8601;48.718;8.992;2023-04-03T14:42:17;6.70;68.90
16970;DHT22;8601;48.718;8.992;2023-04-03T14:44:59;6.80;68.40
16970;DHT22;8601;48.718;8.992;2023-04-03T14:48:22;6.80;70.50
16970;DHT22;8601;48.718;8.992;2023-04-03T14:57:30;6.60;70.30
16970;DHT22;8601;48.718;8.992;2023-04-03T14:59:59;6.60;69.40
16970;DHT22;8601;48.718;8.992;2023-04-03T15:02:40;6.60;68.80
16970;DHT22;8601;48.718;8.992;2023-04-03T15:12:01;6.60;70.00
16970;DHT22;8601;48.718;8.992;2023-04-03T15:18:18;7.00;67.70
16970;DHT22;8601;48.718;8.992;2023-04-03T15:20:52;7.10;66.00
16970;DHT22;8601;48.718;8.992;2023-04-03T15:23:19;9.10;79.30
16970;DHT22;8601;48.718;8.992;2023-04-03T15:25:51;8.80;63.40
16970;DHT22;8601;48.718;8.992;2023-04-03T15:28:23;8.20;60.40
16970;DHT22;8601;48.718;8.992;2023-04-03T15:30:52;7.80;62.20
16970;DHT22;8601;48.718;8.992;2023-04-03T15:33:20;7.40;63.40
16970;DHT22;8601;48.718;8.992;2023-04-03T15:35:47;7.10;65.50
16970;DHT22;8601;48.718;8.992;2023-04-03T15:38:14;7.00;66.10
16970;DHT22;8601;48.718;8.992;2023-04-03T15:40:41;6.80;65.80
16970;DHT22;8601;48.718;8.992;2023-04-03T15:43:09;6.80;66.10
16970;DHT22;8601;48.718;8.992;2023-04-03T15:45:37;6.80;66.70
16970;DHT22;8601;48.718;8.992;2023-04-03T15:48:05;6.80;64.80
16970;DHT22;8601;48.718;8.992;2023-04-03T15:50:34;6.70;66.50
16970;DHT22;8601;48.718;8.992;2023-04-03T15:53:01;6.50;66.00
16970;DHT22;8601;48.718;8.992;2023-04-03T15:55:31;6.60;65.10
16970;DHT22;8601;48.718;8.992;2023-04-03T15:57:58;6.50;66.60
16970;DHT22;8601;48.718;8.992;2023-04-03T16:00:28;6.70;66.50
16970;DHT22;8601;48.718;8.992;2023-04-03T16:02:59;6.90;66.00
16970;DHT22;8601;48.718;8.992;2023-04-03T16:05:27;7.20;66.50
16970;DHT22;8601;48.718;8.992;2023-04-03T16:07:57;7.10;65.20
16970;DHT22;8601;48.718;8.992;2023-04-03T16:10:24;7.10;65.50
16970;DHT22;8601;48.718;8.992;2023-04-03T16:12:52;8.30;70.00
16970;DHT22;8601;48.718;8.992;2023-04-03T16:15:19;7.70;63.50
16970;DHT22;8601;48.718;8.992;2023-04-03T16:17:47;7.40;63.10
16970;DHT22;8601;48.718;8.992;2023-04-03T16:20:15;6.90;62.00
16970;DHT22;8601;48.718;8.992;2023-04-03T16:22:43;6.70;62.20
16970;DHT22;8601;48.718;8.992;2023-04-03T16:25:12;6.60;64.30
16970;DHT22;8601;48.718;8.992;2023-04-03T16:27:39;6.70;63.90
16970;DHT22;8601;48.718;8.992;2023-04-03T16:30:08;6.70;64.00
16970;DHT22;8601;48.718;8.992;2023-04-03T16:32:37;6.70;62.70
16970;DHT22;8601;48.718;8.992;2023-04-03T16:35:05;6.60;64.10
16970;DHT22;8601;48.718;8.992;2023-04-03T16:37:32;6.50;64.40
16970;DHT22;8601;48.718;8.992;2023-04-03T16:39:59;6.60;65.00
16970;DHT22;8601;48.718;8.992;2023-04-03T16:42:27;6.50;65.70
16970;DHT22;8601;48.718;8.992;2023-04-03T16:44:54;6.60;66.50
16970;DHT22;8601;48.718;8.992;2023-04-03T16:47:22;6.90;65.20